Salt Lake City, Utah
Traffic Map
Current Weather Conditions
Salt Lake City, Utah
Few Clouds
Few Clouds
16°
Feels Like: 16°
Wind Chill: 16° Ceiling: Unl
Heat Index: 16° Visibility: 10mi
Dew Point: Wind: 8mph
Humidity: 64% Direction: 140° (SE)
Pressure: 30.2in Gusts: 0mph
Raw Report DataKSLC 280853Z 14007KT 10SM FEW150 16/09 A3020 RMK AO2 SLP184 T01610094 56003
Traffic Incident Summary
Active as of:
Severity:
Category:
InformationThere was an issue retrieving the traffic information for this location. Please try a different location or try again shortly.
Advertisements
Track Severe Weather on mobile